createdAt,value
2022-08-03T00:00:01.542Z,1
2022-08-03T00:05:01.880Z,1
2022-08-03T00:10:02.281Z,1
2022-08-03T00:15:01.726Z,1
2022-08-03T00:20:02.141Z,2
2022-08-03T00:25:01.485Z,1
2022-08-03T00:30:01.949Z,1
2022-08-03T00:35:08.413Z,0
2022-08-03T00:40:03.653Z,1
2022-08-03T00:45:02.068Z,1
2022-08-03T00:50:01.532Z,1
2022-08-03T00:55:01.997Z,1
2022-08-03T01:00:01.392Z,1
2022-08-03T01:05:01.734Z,1
2022-08-03T01:10:02.123Z,1
2022-08-03T01:15:01.498Z,2
2022-08-03T01:20:02.043Z,1
2022-08-03T01:25:01.455Z,1
2022-08-03T01:30:01.796Z,1
2022-08-03T01:35:02.134Z,1
2022-08-03T01:40:01.520Z,0
2022-08-03T01:45:01.869Z,1
2022-08-03T01:50:02.211Z,1
2022-08-03T01:55:01.547Z,1
2022-08-03T02:00:01.902Z,1
2022-08-03T02:05:02.274Z,2
2022-08-03T02:10:01.667Z,1
2022-08-03T02:15:02.026Z,1
2022-08-03T02:20:01.448Z,2
2022-08-03T02:25:01.801Z,1
2022-08-03T02:30:02.158Z,1
2022-08-03T02:35:01.498Z,2
2022-08-03T02:40:02.002Z,1
2022-08-03T02:45:01.386Z,2
2022-08-03T02:50:01.787Z,1
2022-08-03T02:55:02.169Z,2
2022-08-03T03:00:01.561Z,1
2022-08-03T03:05:56.452Z,2
2022-08-03T03:10:01.744Z,1
2022-08-03T03:15:02.128Z,2
2022-08-03T03:20:01.679Z,1
2022-08-03T03:25:02.044Z,2
2022-08-03T03:30:01.413Z,3
2022-08-03T03:35:01.761Z,2
2022-08-03T03:40:02.146Z,2
2022-08-03T03:45:01.521Z,2
2022-08-03T03:50:01.657Z,2
2022-08-03T03:55:02.085Z,1
2022-08-03T04:00:01.483Z,1
2022-08-03T04:05:01.811Z,1
2022-08-03T04:10:14.406Z,1
2022-08-03T04:15:01.380Z,1
2022-08-03T04:20:01.824Z,2
2022-08-03T04:25:02.301Z,1
2022-08-03T04:30:01.519Z,1
2022-08-03T04:35:01.981Z,1
2022-08-03T04:40:01.356Z,1
2022-08-03T04:45:02.292Z,1
2022-08-03T04:50:01.631Z,1
2022-08-03T04:55:01.964Z,2
2022-08-03T05:00:03.453Z,2
2022-08-03T05:05:02.053Z,2
2022-08-03T05:10:03.366Z,1
2022-08-03T05:15:01.928Z,1
2022-08-03T05:20:01.389Z,2
2022-08-03T05:25:01.859Z,1
2022-08-03T05:30:32.321Z,2
2022-08-03T05:35:57.674Z,2
2022-08-03T05:40:02.353Z,3
2022-08-03T05:45:01.709Z,1
2022-08-03T05:50:02.049Z,2
2022-08-03T05:55:01.404Z,2
2022-08-03T06:00:01.784Z,2
2022-08-03T06:05:02.140Z,1
2022-08-03T06:10:36.028Z,1
2022-08-03T06:15:02.097Z,3
2022-08-03T06:20:01.641Z,2
2022-08-03T06:25:04.840Z,2
2022-08-03T06:30:01.997Z,2
2022-08-03T06:35:01.344Z,3
2022-08-03T06:40:01.732Z,2
2022-08-03T06:45:02.210Z,2
2022-08-03T06:50:16.166Z,3
2022-08-03T06:55:01.506Z,3
2022-08-03T07:00:08.498Z,3
2022-08-03T07:05:02.123Z,2
2022-08-03T07:10:02.425Z,4
2022-08-03T07:15:03.125Z,4
2022-08-03T07:20:01.819Z,3
2022-08-03T07:25:02.172Z,3
2022-08-03T07:30:01.549Z,2
2022-08-03T07:35:01.941Z,3
2022-08-03T07:40:01.348Z,4
2022-08-03T07:45:01.694Z,5
2022-08-03T07:50:02.030Z,4
2022-08-03T07:55:01.368Z,5
2022-08-03T08:00:02.827Z,5
2022-08-03T08:05:05.546Z,5
2022-08-03T08:10:02.269Z,6
2022-08-03T08:15:01.626Z,5
2022-08-03T08:20:02.032Z,6
2022-08-03T08:25:01.610Z,6
2022-08-03T08:30:10.197Z,5
2022-08-03T08:35:01.974Z,6
2022-08-03T08:40:01.366Z,8
2022-08-03T08:45:01.712Z,5
2022-08-03T08:50:10.054Z,6
2022-08-03T08:55:01.763Z,8
2022-08-03T09:00:02.136Z,7
2022-08-03T09:05:06.869Z,7
2022-08-03T09:10:11.513Z,6
2022-08-03T09:15:16.629Z,7
2022-08-03T09:20:03.782Z,8
2022-08-03T09:25:23.966Z,7
2022-08-03T09:30:02.199Z,7
2022-08-03T09:35:01.548Z,7
2022-08-03T09:40:01.918Z,7
2022-08-03T09:45:02.278Z,7
2022-08-03T09:50:01.749Z,6
2022-08-03T09:55:02.108Z,7
2022-08-03T10:00:07.724Z,8
2022-08-03T10:05:01.627Z,7
2022-08-03T10:10:31.053Z,8
2022-08-03T10:15:01.341Z,6
2022-08-03T10:20:01.307Z,6
2022-08-03T10:25:01.675Z,7
2022-08-03T10:30:02.038Z,6
2022-08-03T10:35:04.153Z,7
2022-08-03T10:40:02.136Z,7
2022-08-03T10:45:01.639Z,7
2022-08-03T10:50:01.995Z,8
2022-08-03T10:55:03.321Z,5
2022-08-03T11:00:01.984Z,7
2022-08-03T11:05:01.459Z,7
2022-08-03T11:10:01.911Z,7
2022-08-03T11:15:02.310Z,5
2022-08-03T11:20:01.749Z,6
2022-08-03T11:25:02.119Z,6
2022-08-03T11:30:01.502Z,5
2022-08-03T11:35:01.847Z,5
2022-08-03T11:40:02.727Z,6
2022-08-03T11:45:01.551Z,5
2022-08-03T11:50:02.090Z,5
2022-08-03T11:55:01.625Z,6
2022-08-03T12:00:01.988Z,6
2022-08-03T12:05:01.561Z,7
2022-08-03T12:10:01.973Z,6
2022-08-03T12:15:01.318Z,5
2022-08-03T12:20:01.757Z,5
2022-08-03T12:25:02.120Z,6
2022-08-03T12:30:01.609Z,4
2022-08-03T12:35:02.321Z,6
2022-08-03T12:40:06.460Z,4
2022-08-03T12:45:02.271Z,4
2022-08-03T12:50:01.612Z,4
2022-08-03T12:55:01.964Z,4
2022-08-03T13:00:01.338Z,4
2022-08-03T13:05:01.801Z,4
2022-08-03T13:10:07.627Z,4
2022-08-03T13:15:01.470Z,5
2022-08-03T13:20:01.913Z,4
2022-08-03T13:25:02.271Z,4
2022-08-03T13:30:01.758Z,5
2022-08-03T13:35:02.231Z,4
2022-08-03T13:40:02.290Z,4
2022-08-03T13:45:01.608Z,3
2022-08-03T13:50:03.186Z,5
2022-08-03T13:55:01.736Z,4
2022-08-03T14:00:02.228Z,3
2022-08-03T14:05:01.749Z,4
2022-08-03T14:10:02.428Z,3
2022-08-03T14:15:01.968Z,3
2022-08-03T14:20:01.962Z,4
2022-08-03T14:25:01.851Z,4
2022-08-03T14:30:01.689Z,3
2022-08-03T14:35:02.166Z,3
2022-08-03T14:40:01.704Z,3
2022-08-03T14:45:07.326Z,3
2022-08-03T14:50:31.359Z,2
2022-08-03T14:55:01.555Z,3
2022-08-03T15:00:01.982Z,3
2022-08-03T15:05:01.336Z,1
2022-08-03T15:10:02.357Z,2
2022-08-03T15:15:01.886Z,2
2022-08-03T15:20:18.401Z,3
2022-08-03T15:25:01.512Z,2
2022-08-03T15:30:07.874Z,2
2022-08-03T15:35:01.566Z,2
2022-08-03T15:40:02.014Z,2
2022-08-03T15:45:01.418Z,3
2022-08-03T15:50:04.385Z,2
2022-08-03T15:55:02.250Z,2
2022-08-03T16:00:01.601Z,2
2022-08-03T16:05:01.962Z,2
2022-08-03T16:10:01.337Z,2
2022-08-03T16:15:01.696Z,3
2022-08-03T16:20:05.111Z,2
2022-08-03T16:25:02.056Z,3
2022-08-03T16:30:01.406Z,1
2022-08-03T16:35:01.754Z,2
2022-08-03T16:40:02.131Z,3
2022-08-03T16:45:01.478Z,3
2022-08-03T16:50:05.785Z,2
2022-08-03T16:55:01.486Z,2
2022-08-03T17:00:01.839Z,2
2022-08-03T17:05:02.128Z,1
2022-08-03T17:10:01.792Z,1
2022-08-03T17:15:02.272Z,2
2022-08-03T17:20:03.663Z,2
2022-08-03T17:25:01.878Z,2
2022-08-03T17:30:02.551Z,1
2022-08-03T17:35:02.033Z,1
2022-08-03T17:40:03.738Z,1
2022-08-03T17:45:01.505Z,1
2022-08-03T17:50:05.537Z,1
2022-08-03T17:55:50.791Z,2
2022-08-03T18:00:02.274Z,2
2022-08-03T18:05:01.872Z,2
2022-08-03T18:10:05.926Z,1
2022-08-03T18:15:08.369Z,2
2022-08-03T18:20:09.882Z,2
2022-08-03T18:25:07.783Z,1
2022-08-03T18:30:01.362Z,2
2022-08-03T18:35:01.852Z,2
2022-08-03T18:40:01.791Z,1
2022-08-03T18:45:14.770Z,2
2022-08-03T18:50:02.046Z,0
2022-08-03T18:55:06.564Z,2
2022-08-03T19:00:01.678Z,1
2022-08-03T19:05:01.806Z,2
2022-08-03T19:10:03.837Z,1
2022-08-03T19:15:03.125Z,2
2022-08-03T19:20:01.972Z,2
2022-08-03T19:25:01.392Z,1
2022-08-03T19:35:01.800Z,2
2022-08-03T19:40:02.196Z,1
2022-08-03T19:45:01.941Z,3
2022-08-03T19:50:05.713Z,2
2022-08-03T19:55:01.485Z,1
2022-08-03T20:00:03.331Z,2
2022-08-03T20:05:01.422Z,2
2022-08-03T20:10:01.968Z,2
2022-08-03T20:15:01.362Z,2
2022-08-03T20:20:01.860Z,2
2022-08-03T20:25:02.200Z,2
2022-08-03T20:30:07.569Z,1
2022-08-03T20:35:01.411Z,2
2022-08-03T20:40:01.930Z,1
2022-08-03T20:45:05.696Z,2
2022-08-03T20:50:01.306Z,2
2022-08-03T20:55:02.199Z,3
2022-08-03T21:00:01.681Z,1
2022-08-03T21:05:03.362Z,1
2022-08-03T21:10:01.695Z,3
2022-08-03T21:13:12.957Z,2
2022-08-03T21:15:02.249Z,2
2022-08-03T21:20:02.044Z,2
2022-08-03T21:25:01.438Z,2
2022-08-03T21:30:01.786Z,2
2022-08-03T21:35:02.263Z,3
2022-08-03T21:40:01.660Z,2
2022-08-03T21:45:02.136Z,2
2022-08-03T21:50:08.731Z,2
2022-08-03T21:55:01.969Z,2
2022-08-03T22:00:01.608Z,2
2022-08-03T22:05:05.069Z,2
2022-08-03T22:10:01.450Z,2
2022-08-03T22:15:02.309Z,2
2022-08-03T22:20:02.578Z,1
2022-08-03T22:25:01.949Z,3
2022-08-03T22:30:02.426Z,3
2022-08-03T22:35:01.766Z,2
2022-08-03T22:40:02.163Z,3
2022-08-03T22:45:01.652Z,1
2022-08-03T22:50:31.947Z,2
2022-08-03T22:55:01.425Z,2
2022-08-03T23:00:01.907Z,2
2022-08-03T23:05:02.316Z,2
2022-08-03T23:10:01.707Z,3
2022-08-03T23:15:02.065Z,2
2022-08-03T23:20:01.513Z,2
2022-08-03T23:25:01.988Z,2
2022-08-03T23:30:01.327Z,2
2022-08-03T23:35:01.667Z,2
2022-08-03T23:40:02.055Z,2
2022-08-03T23:45:05.450Z,2
2022-08-03T23:50:01.583Z,3
2022-08-03T23:55:01.925Z,2
